Time;durP1;ratioP1;P1;durP2;ratioP2;P2;SDS_P1;SDS_P2;PMS_P1;PMS_P2;Temp;Humidity;BMP_temperature;BMP_pressure;BME280_temperature;BME280_humidity;BME280_pressure;Samples;Min_cycle;Max_cycle;Signal;HPM_P1;HPM_P2
2024/03/03 06:43:22;;;;;;;55.20;25.65;;;;;;;5.95;91.24;94856.50;2089292;28;21035;-61
2024/03/03 06:44:23;;;;;;;59.85;25.90;;;;;;;6.04;90.35;94842.22;2090536;28;20195;-62
2024/03/03 06:45:25;;;;;;;55.78;26.05;;;;;;;6.42;89.81;94846.19;2089964;28;20279;-62
2024/03/03 06:52:05;;;;;;;52.72;25.33;;;;;;;7.43;87.04;94842.00;2101232;27;20545;-61
2024/03/03 06:53:06;;;;;;;45.75;22.70;;;;;;;7.75;86.84;94840.94;2095866;28;20241;-61
2024/03/03 06:54:08;;;;;;;49.33;24.42;;;;;;;8.05;85.66;94838.19;2096391;28;20250;-60
2024/03/03 07:00:20;;;;;;;56.17;23.47;;;;;;;8.72;83.80;94837.38;2077116;27;1216077;-60
2024/03/03 07:01:21;;;;;;;46.08;23.13;;;;;;;8.72;83.84;94834.75;2100723;28;20220;-61
2024/03/03 07:07:21;;;;;;;43.78;23.95;;;;;;;7.95;85.72;94837.09;2102316;27;20592;-62
2024/03/03 09:18:26;;;;;;;46.28;23.23;;;;;;;7.71;88.87;94837.69;2090780;28;20560;-68
2024/03/03 09:21:24;;;;;;;43.67;21.13;;;;;;;8.15;86.89;94833.22;2097449;27;20568;-67
2024/03/03 09:24:24;;;;;;;46.80;21.88;;;;;;;8.29;85.89;94846.19;2089404;28;21118;-67
2024/03/03 09:27:27;;;;;;;45.80;22.70;;;;;;;8.29;85.63;94854.00;2090882;28;20579;-67
2024/03/03 09:30:34;;;;;;;51.08;23.75;;;;;;;8.18;86.48;94841.66;2100372;27;20867;-65
2024/03/03 09:31:36;;;;;;;50.33;23.48;;;;;;;8.17;86.22;94832.19;2091933;28;20216;-66
2024/03/03 09:34:33;;;;;;;40.80;20.40;;;;;;;8.44;83.30;94830.50;2084691;27;20549;-68
2024/03/03 09:35:35;;;;;;;44.65;20.50;;;;;;;8.17;84.17;94828.75;2082068;28;20202;-68
2024/03/03 09:36:37;;;;;;;42.88;21.23;;;;;;;8.29;85.16;94837.53;2070834;28;20309;-68
2024/03/03 09:37:38;;;;;;;90.45;34.05;;;;;;;8.46;84.39;94833.88;2071796;28;20213;-68
2024/03/03 09:38:41;;;;;;;76.40;31.17;;;;;;;8.42;84.45;94820.22;2071587;28;20190;-68
2024/03/03 09:39:43;;;;;;;81.30;29.80;;;;;;;8.74;83.43;94825.09;2067090;28;20203;-68
2024/03/03 09:40:44;;;;;;;68.47;27.35;;;;;;;8.99;82.82;94834.69;2070064;28;20290;-68
2024/03/03 09:41:49;;;;;;;56.78;25.20;;;;;;;9.30;81.83;94840.44;2070762;28;20218;-68
2024/03/03 09:42:52;;;;;;;69.82;26.40;;;;;;;9.48;80.88;94838.34;2071741;28;20217;-68
2024/03/03 09:44:02;;;;;;;40.40;19.77;;;;;;;9.38;80.08;94846.91;2073681;28;20781;-68
2024/03/03 09:45:10;;;;;;;38.65;18.73;;;;;;;9.20;80.79;94847.22;2074346;28;20604;-68
2024/03/03 09:46:13;;;;;;;57.03;22.50;;;;;;;9.74;79.58;94840.91;2071678;28;20634;-68
2024/03/03 09:47:15;;;;;;;47.85;21.33;;;;;;;9.70;79.96;94841.22;2070781;28;20210;-68
2024/03/03 09:48:20;;;;;;;49.10;23.35;;;;;;;10.05;79.71;94836.13;2069903;28;20650;-68
2024/03/03 09:49:23;;;;;;;44.40;21.23;;;;;;;10.46;77.93;94831.50;2071444;28;20825;-68
2024/03/03 09:50:26;;;;;;;41.40;20.70;;;;;;;10.70;76.78;94846.31;2071937;28;20205;-68
2024/03/03 09:51:29;;;;;;;39.70;20.35;;;;;;;11.03;75.64;94839.53;2067730;28;20310;-68
2024/03/03 09:52:33;;;;;;;36.53;19.90;;;;;;;11.15;74.36;94837.75;2072893;28;20277;-68
2024/03/03 09:53:40;;;;;;;38.55;18.45;;;;;;;11.52;72.82;94842.81;2072510;28;20299;-67
2024/03/03 09:54:44;;;;;;;38.00;20.40;;;;;;;11.81;72.26;94843.16;2071942;28;20767;-67
2024/03/03 09:55:47;;;;;;;39.03;20.38;;;;;;;11.80;71.35;94836.25;2072736;28;20203;-66
2024/03/03 09:56:51;;;;;;;34.85;18.08;;;;;;;12.24;70.83;94834.56;2059022;28;20234;-69
2024/03/03 09:57:53;;;;;;;42.85;20.33;;;;;;;12.72;69.31;94835.09;2065998;28;20199;-68
2024/03/03 09:58:55;;;;;;;33.85;18.80;;;;;;;12.86;68.55;94837.44;2064939;28;20286;-68
2024/03/03 09:59:57;;;;;;;31.15;17.60;;;;;;;12.50;68.99;94836.03;2073148;28;20710;-68
2024/03/03 10:01:00;;;;;;;31.88;18.02;;;;;;;12.48;67.32;94832.69;2074120;28;20206;-68
2024/03/03 10:02:02;;;;;;;38.85;18.08;;;;;;;13.28;66.71;94835.75;2068686;28;20229;-68
2024/03/03 10:03:06;;;;;;;33.50;17.85;;;;;;;13.08;66.72;94825.16;2070699;28;20198;-68
2024/03/03 10:04:09;;;;;;;35.63;18.80;;;;;;;13.59;65.93;94827.97;2068101;28;20250;-68
2024/03/03 10:05:13;;;;;;;32.80;17.70;;;;;;;14.04;64.99;94838.03;2066325;28;20211;-68
2024/03/03 10:06:18;;;;;;;28.85;16.77;;;;;;;14.73;63.23;94835.53;2064776;28;20209;-68
2024/03/03 10:07:28;;;;;;;27.88;16.45;;;;;;;14.85;61.75;94830.03;2068226;28;20689;-68
2024/03/03 10:08:33;;;;;;;27.73;14.55;;;;;;;15.91;59.01;94825.63;2068620;28;20882;-68
2024/03/03 10:09:36;;;;;;;27.15;14.45;;;;;;;16.64;56.47;94832.69;2079933;28;20201;-68
2024/03/03 10:10:43;;;;;;;25.83;14.55;;;;;;;16.70;56.17;94837.34;2080626;28;20646;-69
2024/03/03 10:11:50;;;;;;;25.95;15.25;;;;;;;16.74;56.97;94836.06;2073040;28;20268;-69
2024/03/03 10:12:53;;;;;;;31.55;17.30;;;;;;;16.85;56.70;94831.53;2069674;28;20233;-68
2024/03/03 10:13:55;;;;;;;32.65;17.48;;;;;;;17.39;55.63;94829.69;2068008;28;20196;-69
2024/03/03 10:14:58;;;;;;;28.17;16.55;;;;;;;17.46;54.18;94832.56;2069379;28;20281;-69
2024/03/03 10:16:01;;;;;;;26.10;15.05;;;;;;;17.97;53.57;94832.69;2074067;28;20288;-69
2024/03/03 10:17:03;;;;;;;26.02;16.25;;;;;;;18.10;52.33;94819.03;2072366;28;20230;-69
2024/03/03 10:18:08;;;;;;;23.80;14.98;;;;;;;17.73;52.25;94820.16;2073182;28;20198;-69
2024/03/03 10:19:10;;;;;;;23.00;13.00;;;;;;;17.38;53.49;94833.31;2073630;28;20760;-68
2024/03/03 10:20:12;;;;;;;20.10;13.00;;;;;;;17.56;53.67;94825.34;2068298;28;20284;-69
2024/03/03 10:21:14;;;;;;;24.52;14.07;;;;;;;17.84;53.63;94830.44;2069280;28;20760;-67
2024/03/03 10:22:20;;;;;;;24.65;14.18;;;;;;;17.03;54.64;94840.31;2073322;28;20248;-67
2024/03/03 10:23:23;;;;;;;24.63;14.90;;;;;;;17.24;54.23;94833.88;2072789;28;20567;-67
2024/03/03 10:24:27;;;;;;;22.95;14.57;;;;;;;16.39;55.10;94844.78;2072826;28;20194;-67
2024/03/03 10:25:30;;;;;;;25.52;14.30;;;;;;;16.06;56.26;94836.50;2071336;28;20223;-67
2024/03/03 10:26:35;;;;;;;25.13;14.38;;;;;;;15.72;56.76;94837.03;2069835;28;20223;-67
2024/03/03 10:27:40;;;;;;;24.10;12.07;;;;;;;15.80;55.69;94842.41;2071072;28;20562;-68
2024/03/03 10:29:02;;;;;;;23.88;15.00;;;;;;;15.79;56.63;94833.66;2072899;28;20312;-68
2024/03/03 10:30:07;;;;;;;26.88;16.77;;;;;;;15.45;58.36;94836.84;2071312;28;20202;-68
2024/03/03 10:31:10;;;;;;;28.73;14.45;;;;;;;15.13;59.38;94845.88;2066877;28;20198;-68
2024/03/03 10:32:12;;;;;;;24.48;16.00;;;;;;;15.24;59.24;94841.47;2071950;28;20236;-68
2024/03/03 10:33:14;;;;;;;27.10;15.80;;;;;;;14.88;59.70;94830.69;2066439;28;20628;-68
2024/03/03 10:34:15;;;;;;;28.15;15.90;;;;;;;15.71;58.23;94830.13;2067228;28;20230;-68
2024/03/03 10:35:20;;;;;;;25.73;15.45;;;;;;;15.48;57.46;94833.94;2072101;28;20907;-68
2024/03/03 10:36:22;;;;;;;26.85;16.60;;;;;;;15.36;58.50;94827.16;2071146;28;20313;-67
2024/03/03 10:37:24;;;;;;;27.88;15.70;;;;;;;15.27;58.33;94820.97;2065745;28;20593;-68
2024/03/03 10:38:30;;;;;;;24.13;15.07;;;;;;;14.89;59.16;94832.38;2071747;28;20661;-68
2024/03/03 10:39:35;;;;;;;32.75;15.90;;;;;;;14.60;60.15;94828.75;2069970;28;20292;-68
2024/03/03 10:40:37;;;;;;;25.33;15.02;;;;;;;14.54;60.90;94814.34;2071423;28;20198;-68
2024/03/03 10:41:39;;;;;;;25.65;14.73;;;;;;;14.79;59.66;94829.75;2068669;28;20231;-69
2024/03/03 10:42:41;;;;;;;23.27;13.02;;;;;;;14.77;59.60;94831.69;2071003;28;20201;-69
2024/03/03 10:43:43;;;;;;;24.00;14.68;;;;;;;14.82;59.74;94822.41;2074049;28;20196;-69
2024/03/03 10:44:45;;;;;;;26.00;13.65;;;;;;;14.67;59.65;94816.75;2070269;28;20202;-67
2024/03/03 10:45:47;;;;;;;26.55;14.15;;;;;;;14.39;60.90;94828.88;2065395;28;20198;-64
2024/03/03 10:46:50;;;;;;;26.73;15.48;;;;;;;14.31;61.54;94831.31;2053222;28;20313;-64
2024/03/03 10:47:57;;;;;;;31.80;16.15;;;;;;;14.06;62.09;94833.50;2054074;28;20289;-65
2024/03/03 10:49:01;;;;;;;25.38;14.05;;;;;;;14.13;61.87;94826.75;2074603;28;20204;-65
2024/03/03 10:50:10;;;;;;;23.17;14.07;;;;;;;13.93;61.86;94822.41;2067572;28;20207;-65
2024/03/03 10:51:19;;;;;;;23.70;12.80;;;;;;;13.58;62.72;94831.53;2066057;28;20203;-65
2024/03/03 10:52:20;;;;;;;23.60;14.38;;;;;;;13.77;62.31;94826.34;2065419;28;20197;-65
2024/03/03 10:53:22;;;;;;;27.40;13.75;;;;;;;14.01;62.08;94828.63;2066516;28;20310;-65
2024/03/03 10:54:24;;;;;;;23.77;13.40;;;;;;;13.99;62.37;94817.47;2063503;28;20275;-65
2024/03/03 10:55:28;;;;;;;25.15;13.50;;;;;;;13.98;62.08;94818.41;2063183;28;20208;-65
2024/03/03 10:56:32;;;;;;;23.42;14.15;;;;;;;14.45;61.86;94823.06;2067069;28;20831;-65
2024/03/03 10:57:35;;;;;;;24.38;14.27;;;;;;;14.60;61.19;94818.25;2068121;28;20202;-65
2024/03/03 10:58:39;;;;;;;26.50;14.23;;;;;;;14.56;61.20;94811.59;2050811;28;20853;-65
2024/03/03 10:59:44;;;;;;;23.67;13.43;;;;;;;15.08;60.27;94816.56;2069044;28;20215;-65
2024/03/03 11:00:46;;;;;;;23.75;13.50;;;;;;;14.38;60.66;94816.69;2071760;28;20199;-65
2024/03/03 11:01:49;;;;;;;24.23;13.70;;;;;;;14.67;61.44;94819.38;2070926;28;20292;-65
2024/03/03 11:02:51;;;;;;;23.63;13.73;;;;;;;15.18;60.96;94811.31;2080263;28;20214;-68
2024/03/03 11:03:55;;;;;;;22.13;11.52;;;;;;;15.58;60.31;94809.38;2065946;28;20200;-68
2024/03/03 11:04:59;;;;;;;29.80;12.38;;;;;;;15.79;60.22;94796.84;2067101;28;20895;-69
2024/03/03 11:06:05;;;;;;;18.27;12.20;;;;;;;15.77;58.93;94793.53;2065118;28;20260;-69
2024/03/03 11:07:06;;;;;;;19.33;11.82;;;;;;;16.18;57.96;94800.28;2066642;28;20203;-69
2024/03/03 11:08:10;;;;;;;21.85;12.57;;;;;;;16.17;58.11;94807.34;2059946;28;20201;-69
2024/03/03 11:09:13;;;;;;;19.15;11.65;;;;;;;16.45;57.31;94800.22;2061402;28;20593;-66
2024/03/03 11:10:15;;;;;;;19.98;12.48;;;;;;;16.79;56.66;94799.53;2068646;28;20213;-67
2024/03/03 11:11:21;;;;;;;21.42;11.32;;;;;;;16.82;56.04;94798.41;2064307;28;20199;-66
2024/03/03 11:12:27;;;;;;;20.35;11.55;;;;;;;16.86;56.10;94799.78;2065620;28;20202;-66
2024/03/03 11:13:31;;;;;;;23.15;12.18;;;;;;;16.82;55.97;94785.22;2064889;28;20252;-66
2024/03/03 11:14:45;;;;;;;18.13;10.13;;;;;;;15.48;53.56;94797.09;2064595;28;20624;-66
2024/03/03 11:15:51;;;;;;;14.50;8.50;;;;;;;15.80;53.69;94797.69;2065042;28;20366;-66
2024/03/03 11:16:56;;;;;;;18.33;9.73;;;;;;;15.99;53.67;94805.50;2059788;28;20317;-66
2024/03/03 11:18:09;;;;;;;17.75;10.40;;;;;;;15.77;56.12;94800.59;2061080;28;20735;-65
2024/03/03 11:19:19;;;;;;;18.17;9.85;;;;;;;16.45;53.83;94779.16;2061157;28;20207;-66
2024/03/03 11:20:22;;;;;;;10.25;6.40;;;;;;;15.16;52.83;94798.31;2067675;28;20202;-65
2024/03/03 11:21:30;;;;;;;10.52;5.60;;;;;;;15.72;52.43;94787.88;2067254;28;20308;-65
2024/03/03 11:22:35;;;;;;;16.48;8.43;;;;;;;15.88;53.11;94795.16;2066817;28;20294;-65
2024/03/03 11:23:52;;;;;;;14.98;7.35;;;;;;;16.20;53.24;94788.63;2066685;28;20232;-65
2024/03/03 11:24:58;;;;;;;17.38;8.70;;;;;;;16.53;53.50;94796.00;2065432;28;20203;-65
2024/03/03 11:26:09;;;;;;;21.10;8.65;;;;;;;16.89;53.24;94790.75;2063035;28;20264;-65
2024/03/03 11:27:15;;;;;;;19.40;9.75;;;;;;;16.53;52.50;94786.31;2066622;28;20214;-66
2024/03/03 11:28:23;;;;;;;12.75;7.43;;;;;;;16.04;52.69;94793.72;2065967;28;20644;-65
2024/03/03 11:29:26;;;;;;;13.80;6.28;;;;;;;16.10;51.56;94783.41;2064255;28;20213;-65
2024/03/03 11:30:29;;;;;;;10.52;5.50;;;;;;;15.72;51.57;94776.50;2062695;28;20196;-65
2024/03/03 11:31:30;;;;;;;10.93;6.25;;;;;;;16.43;51.20;94778.47;2061002;28;20228;-66
2024/03/03 11:32:35;;;;;;;9.32;6.15;;;;;;;15.95;51.53;94788.34;2061898;28;20558;-65
2024/03/03 11:33:39;;;;;;;9.80;5.68;;;;;;;14.95;53.12;94787.13;2060488;28;20625;-65
2024/03/03 11:34:44;;;;;;;10.70;6.05;;;;;;;15.12;53.05;94786.44;2056460;28;20212;-65
2024/03/03 11:35:46;;;;;;;10.57;5.97;;;;;;;15.54;53.23;94784.34;2055928;28;20596;-65
2024/03/03 11:36:48;;;;;;;14.38;8.02;;;;;;;15.88;53.19;94791.72;2059031;28;20242;-65
2024/03/03 11:37:50;;;;;;;13.65;7.78;;;;;;;16.13;52.93;94772.56;2065840;28;20243;-66
2024/03/03 11:38:57;;;;;;;15.50;7.40;;;;;;;15.04;55.30;94773.16;2064381;28;20205;-65
2024/03/03 11:39:59;;;;;;;11.95;7.13;;;;;;;15.05;55.06;94785.31;2064424;28;20244;-65
2024/03/03 11:41:01;;;;;;;11.90;6.70;;;;;;;15.24;54.15;94786.25;2063584;28;20249;-65
2024/03/03 11:42:27;;;;;;;8.85;5.38;;;;;;;15.49;52.17;94782.13;2066252;28;20225;-65
2024/03/03 11:43:28;;;;;;;13.13;5.90;;;;;;;15.14;52.79;94771.31;2059135;28;20291;-65
2024/03/03 11:44:36;;;;;;;12.15;6.60;;;;;;;14.82;53.16;94777.75;2055258;28;20288;-65
2024/03/03 11:45:45;;;;;;;9.20;5.30;;;;;;;15.09;53.08;94759.59;2062881;28;20270;-65
2024/03/03 11:46:48;;;;;;;12.73;7.00;;;;;;;15.67;52.48;94758.56;2059666;28;20738;-65
2024/03/03 11:47:50;;;;;;;10.00;6.25;;;;;;;15.02;54.68;94765.41;2060850;28;20196;-65
2024/03/03 11:48:57;;;;;;;15.35;7.43;;;;;;;16.20;54.63;94761.47;2070057;28;20195;-65
2024/03/03 11:49:59;;;;;;;13.90;8.13;;;;;;;17.09;53.71;94765.88;2077603;28;20203;-66
2024/03/03 11:51:28;;;;;;;13.93;7.70;;;;;;;17.68;52.36;94773.13;2075356;28;20203;-66
2024/03/03 11:52:49;;;;;;;18.55;9.40;;;;;;;18.07;51.75;94756.81;2067839;28;20291;-66
2024/03/03 11:54:04;;;;;;;14.70;8.50;;;;;;;18.57;51.01;94759.53;2066394;28;20239;-68
2024/03/03 11:55:08;;;;;;;14.07;8.50;;;;;;;18.85;50.84;94749.44;2065024;28;20204;-68
2024/03/03 11:56:18;;;;;;;17.25;8.20;;;;;;;18.85;50.84;94749.44;2063417;28;20229;-68
2024/03/03 11:57:20;;;;;;;12.02;7.35;;;;;;;19.33;49.78;94760.19;2062345;28;20509;-68
2024/03/03 11:58:24;;;;;;;12.55;7.63;;;;;;;19.20;49.52;94751.97;2068007;28;20252;-69
2024/03/03 11:59:33;;;;;;;13.10;7.75;;;;;;;19.06;49.40;94753.47;2063296;28;20203;-69
2024/03/03 12:00:35;;;;;;;19.75;8.38;;;;;;;18.38;49.50;94753.56;2065931;28;20234;-69
2024/03/03 12:01:39;;;;;;;13.80;8.18;;;;;;;18.53;49.45;94745.00;2064812;28;20237;-67
2024/03/03 12:02:42;;;;;;;14.25;8.73;;;;;;;17.98;50.60;94757.78;2064062;28;20285;-67
2024/03/03 12:03:44;;;;;;;14.90;8.45;;;;;;;18.26;50.10;94746.94;2060583;28;20206;-68
2024/03/03 12:04:48;;;;;;;20.52;8.50;;;;;;;18.40;50.17;94743.66;2067128;28;20211;-67
2024/03/03 12:05:51;;;;;;;15.75;8.40;;;;;;;18.67;49.64;94741.69;2063916;28;20192;-67
2024/03/03 12:06:53;;;;;;;17.27;9.10;;;;;;;18.73;49.87;94746.31;2066393;28;20262;-67
2024/03/03 12:07:56;;;;;;;17.52;10.07;;;;;;;18.80;49.51;94756.25;2065917;28;20202;-68
2024/03/03 12:09:02;;;;;;;16.63;9.00;;;;;;;18.98;49.77;94748.16;2060908;28;20206;-68
2024/03/03 12:10:17;;;;;;;15.35;9.40;;;;;;;19.17;50.25;94747.81;2061207;28;20195;-69
2024/03/03 12:11:19;;;;;;;16.80;8.48;;;;;;;18.81;50.22;94747.31;2069015;28;20228;-68
2024/03/03 12:12:21;;;;;;;15.38;9.18;;;;;;;18.72;49.93;94746.50;2071970;28;20643;-68
2024/03/03 12:13:22;;;;;;;14.48;9.10;;;;;;;18.66;49.38;94742.69;2064830;28;20191;-68
2024/03/03 12:14:26;;;;;;;12.98;8.07;;;;;;;18.68;49.77;94747.81;2064092;28;20202;-68
2024/03/03 12:15:29;;;;;;;16.00;9.27;;;;;;;18.64;49.43;94751.78;2067174;28;20729;-65
2024/03/03 12:16:33;;;;;;;16.20;8.60;;;;;;;18.61;49.94;94739.72;2063160;28;20327;-65
2024/03/03 12:17:35;;;;;;;15.18;8.70;;;;;;;18.48;50.30;94744.66;2065673;28;20190;-65
2024/03/03 12:18:36;;;;;;;14.20;8.57;;;;;;;18.40;50.46;94743.66;2065277;28;20198;-65
2024/03/03 12:19:38;;;;;;;20.05;9.85;;;;;;;18.26;50.38;94744.31;2065206;28;20289;-65
2024/03/03 12:20:42;;;;;;;16.45;9.57;;;;;;;18.16;50.59;94746.28;2067661;28;20194;-65
2024/03/03 12:21:43;;;;;;;14.95;8.35;;;;;;;18.16;50.57;94746.28;2068089;28;20287;-65
2024/03/03 12:22:45;;;;;;;15.00;8.75;;;;;;;17.98;50.25;94744.56;2064993;28;20205;-65
2024/03/03 12:23:47;;;;;;;13.05;8.32;;;;;;;17.70;51.50;94731.56;2065770;28;20204;-64
2024/03/03 12:24:55;;;;;;;14.45;8.48;;;;;;;17.71;51.37;94730.59;2062180;28;20790;-64
2024/03/03 12:25:57;;;;;;;12.77;7.43;;;;;;;17.89;51.31;94743.69;2062131;28;20229;-64
2024/03/03 12:27:05;;;;;;;19.08;9.13;;;;;;;17.20;51.21;94734.94;2057403;28;20933;-64
2024/03/03 12:28:07;;;;;;;17.02;8.80;;;;;;;17.63;50.88;94735.81;2068778;28;20229;-64
2024/03/03 12:29:09;;;;;;;20.92;9.43;;;;;;;18.00;51.12;94734.66;2077002;28;20202;-63
2024/03/03 12:30:20;;;;;;;26.73;10.77;;;;;;;18.29;51.92;94738.69;2078470;28;20233;-63
2024/03/03 12:31:21;;;;;;;23.75;10.95;;;;;;;18.55;51.11;94724.50;2064281;28;20223;-64
2024/03/03 12:32:24;;;;;;;53.45;17.52;;;;;;;18.79;51.38;94726.31;2065523;28;20211;-64
2024/03/03 12:33:26;;;;;;;22.35;11.90;;;;;;;18.78;49.83;94740.56;2063448;28;20642;-63
2024/03/03 12:34:27;;;;;;;19.98;10.85;;;;;;;18.91;49.04;94737.44;2068288;28;20317;-65
2024/03/03 12:35:29;;;;;;;21.48;11.10;;;;;;;19.30;49.05;94730.59;2068569;28;20190;-65
2024/03/03 12:36:30;;;;;;;16.98;9.90;;;;;;;18.39;49.31;94720.88;2065833;28;20226;-65
2024/03/03 12:37:32;;;;;;;17.08;9.38;;;;;;;18.97;49.00;94739.41;2065228;28;20258;-64
2024/03/03 12:38:34;;;;;;;17.35;9.73;;;;;;;18.32;49.95;94727.81;2064911;28;20209;-64
2024/03/03 12:39:36;;;;;;;15.43;8.95;;;;;;;18.44;50.28;94728.31;2078674;28;20228;-64
2024/03/03 12:40:38;;;;;;;20.20;10.32;;;;;;;19.16;49.37;94729.44;2076968;28;20553;-65
2024/03/03 12:41:45;;;;;;;20.73;10.52;;;;;;;19.69;48.93;94732.44;2062897;28;20744;-64
2024/03/03 12:42:50;;;;;;;16.60;10.10;;;;;;;20.12;48.33;94743.53;2060149;28;20198;-65
2024/03/03 12:43:55;;;;;;;17.17;10.15;;;;;;;18.57;49.40;94735.75;2063562;28;20207;-64
2024/03/03 12:44:59;;;;;;;16.00;9.00;;;;;;;18.31;49.96;94723.50;2077212;28;20263;-64
2024/03/03 12:46:01;;;;;;;11.10;7.18;;;;;;;18.84;50.15;94731.97;2079161;28;20241;-64
2024/03/03 12:47:03;;;;;;;14.85;8.73;;;;;;;19.49;49.09;94735.50;2065909;28;20202;-64
2024/03/03 12:48:06;;;;;;;17.50;9.73;;;;;;;20.34;47.90;94717.25;2066055;28;20735;-64
2024/03/03 12:49:09;;;;;;;19.05;10.15;;;;;;;20.42;48.52;94714.53;2064496;28;20302;-65
2024/03/03 12:50:15;;;;;;;25.42;10.25;;;;;;;20.88;47.84;94726.97;2065383;28;20226;-65
2024/03/03 12:51:17;;;;;;;16.58;9.60;;;;;;;20.52;45.80;94725.72;2063361;28;20211;-64
2024/03/03 12:52:18;;;;;;;15.55;10.35;;;;;;;20.92;46.25;94725.59;2068239;28;20289;-64
2024/03/03 12:53:20;;;;;;;17.15;9.48;;;;;;;-145.49;100.00;55703.94;2063737;28;20678;-65
2024/03/03 12:54:34;;;;;;;14.52;7.80;;;;;;;-145.49;100.00;55703.94;2066563;28;20281;-65
2024/03/03 12:55:36;;;;;;;14.45;6.65;;;;;;;-145.49;100.00;55703.94;2066172;28;20203;-65
2024/03/03 12:56:38;;;;;;;14.90;7.45;;;;;;;-145.49;100.00;55703.94;2065101;28;20219;-65
2024/03/03 12:57:41;;;;;;;14.55;7.43;;;;;;;-145.49;100.00;55703.94;2067318;28;20199;-65
2024/03/03 12:58:44;;;;;;;12.57;7.03;;;;;;;-145.49;100.00;55703.94;2067824;28;20293;-70
2024/03/03 12:59:45;;;;;;;8.95;4.72;;;;;;;-145.49;100.00;55703.94;2065408;28;20200;-70
2024/03/03 13:00:48;;;;;;;7.95;5.10;;;;;;;-145.49;100.00;55703.94;2063132;28;20283;-70
2024/03/03 13:01:51;;;;;;;10.60;5.95;;;;;;;-145.49;100.00;55703.94;2061410;28;20228;-70
2024/03/03 13:02:53;;;;;;;9.13;5.28;;;;;;;-145.49;100.00;55703.94;2059810;28;20658;-70
2024/03/03 13:03:55;;;;;;;9.20;5.05;;;;;;;-145.49;100.00;55703.94;2064276;28;20200;-69
2024/03/03 13:04:56;;;;;;;9.65;5.55;;;;;;;-145.49;100.00;55703.94;2064577;28;20212;-70
2024/03/03 13:05:58;;;;;;;10.82;6.50;;;;;;;-145.49;100.00;55703.94;2066011;28;20822;-70
2024/03/03 13:07:03;;;;;;;10.82;5.82;;;;;;;-145.49;100.00;55703.94;2059260;28;20236;-71
2024/03/03 13:08:05;;;;;;;10.20;5.90;;;;;;;-145.49;100.00;55703.94;2079360;28;20205;-69
2024/03/03 13:09:07;;;;;;;15.45;10.30;;;;;;;-145.49;100.00;55703.94;2076105;28;20207;-72
2024/03/03 13:10:22;;;;;;;80.35;54.05;;;;;;;-145.49;100.00;55703.94;2063059;28;20337;-69
2024/03/03 13:11:24;;;;;;;45.47;28.77;;;;;;;-145.49;100.00;55703.94;2065124;28;20232;-70
2024/03/03 13:12:26;;;;;;;16.63;6.60;;;;;;;-145.49;100.00;55703.94;2066270;28;20206;-70
2024/03/03 13:13:27;;;;;;;9.55;5.75;;;;;;;-145.49;100.00;55703.94;2064995;28;20208;-69
2024/03/03 13:14:29;;;;;;;8.68;5.93;;;;;;;19.36;44.85;94727.25;2066004;28;20201;-71
2024/03/03 13:15:33;;;;;;;12.40;6.40;;;;;;;19.93;46.84;94728.09;2063041;28;20246;-68
2024/03/03 13:16:38;;;;;;;12.75;6.10;;;;;;;21.21;44.64;94722.19;2064482;28;20230;-67
2024/03/03 13:17:40;;;;;;;10.90;6.68;;;;;;;21.29;44.20;94717.81;2060354;28;20199;-67
2024/03/03 13:18:41;;;;;;;13.05;6.70;;;;;;;21.29;44.37;94725.75;2063609;28;20826;-70
2024/03/03 13:19:47;;;;;;;11.55;6.90;;;;;;;21.23;44.38;94724.69;2061231;28;20290;-70
2024/03/03 13:20:49;;;;;;;8.95;5.97;;;;;;;21.88;43.77;94714.34;2064724;28;20242;-69
2024/03/03 13:22:01;;;;;;;11.00;6.95;;;;;;;22.37;44.03;94720.84;2064320;28;20219;-70
2024/03/03 13:23:13;;;;;;;12.85;6.50;;;;;;;22.35;43.38;94728.16;2064769;28;20263;-71
2024/03/03 13:24:15;;;;;;;13.48;6.80;;;;;;;22.65;41.95;94720.09;2066896;28;20198;-71
2024/03/03 13:25:17;;;;;;;12.85;7.85;;;;;;;21.69;41.97;94723.72;2067037;28;20211;-71
2024/03/03 13:26:18;;;;;;;14.15;8.70;;;;;;;21.08;44.56;94708.72;2065807;28;20708;-71
2024/03/03 13:27:22;;;;;;;12.05;5.85;;;;;;;21.26;45.00;94708.38;2065966;28;20206;-71
2024/03/03 13:28:23;;;;;;;12.02;7.28;;;;;;;20.38;45.26;94731.81;2064949;28;20207;-70
2024/03/03 13:29:25;;;;;;;11.55;7.22;;;;;;;20.67;46.03;94722.31;2065550;28;20328;-69
2024/03/03 13:30:29;;;;;;;9.73;6.15;;;;;;;20.69;44.92;94699.09;2062237;28;20195;-69
2024/03/03 13:31:30;;;;;;;12.07;5.72;;;;;;;21.29;43.49;94721.31;2063310;28;20226;-69
2024/03/03 13:32:32;;;;;;;8.43;5.57;;;;;;;19.78;46.00;94734.06;2064375;28;20507;-68
2024/03/03 13:33:38;;;;;;;11.35;6.97;;;;;;;20.75;45.81;94722.28;2064409;28;20195;-69
2024/03/03 13:34:43;;;;;;;12.13;6.10;;;;;;;19.58;45.63;94729.19;2065720;28;20507;-69
2024/03/03 13:35:45;;;;;;;9.95;5.53;;;;;;;19.32;46.71;94724.13;2065579;28;20207;-72
2024/03/03 13:36:46;;;;;;;11.15;6.18;;;;;;;19.77;46.90;94721.00;2063718;28;20223;-73
2024/03/03 13:37:48;;;;;;;11.68;4.75;;;;;;;21.28;45.72;94729.41;2063767;28;20195;-72
2024/03/03 13:38:49;;;;;;;12.38;5.10;;;;;;;20.51;43.95;94720.63;2060418;28;20428;-72
2024/03/03 13:39:50;;;;;;;10.60;6.00;;;;;;;19.28;46.54;94714.88;2060894;28;20199;-70
2024/03/03 13:40:52;;;;;;;9.10;5.40;;;;;;;20.74;44.41;94719.81;2061364;28;20669;-70
2024/03/03 13:41:53;;;;;;;9.02;5.28;;;;;;;22.00;44.29;94714.69;2063483;28;20690;-70
2024/03/03 13:42:55;;;;;;;8.88;5.53;;;;;;;22.80;42.67;94698.75;2063683;28;20638;-70
2024/03/03 13:43:56;;;;;;;8.77;5.28;;;;;;;23.39;42.29;94718.88;2063288;28;20287;-70
2024/03/03 13:44:58;;;;;;;8.73;5.57;;;;;;;23.39;42.29;94718.88;2063209;28;20194;-71
2024/03/03 13:46:01;;;;;;;10.10;5.45;;;;;;;24.02;40.91;94719.81;2067108;28;20194;-71
2024/03/03 13:47:03;;;;;;;8.98;5.10;;;;;;;24.21;41.23;94721.72;2064143;28;20629;-73
2024/03/03 13:48:13;;;;;;;9.60;5.80;;;;;;;24.76;41.15;94728.88;2067850;28;20227;-74
2024/03/03 13:49:15;;;;;;;8.27;5.50;;;;;;;23.16;41.00;94724.44;2065794;28;20208;-72
2024/03/03 13:50:16;;;;;;;10.05;5.85;;;;;;;23.53;41.60;94730.44;2057762;28;20197;-72
2024/03/03 13:51:18;;;;;;;10.50;5.72;;;;;;;-145.49;100.00;55703.94;2058961;28;20203;-71
2024/03/03 13:52:19;;;;;;;10.18;6.00;;;;;;;-145.49;100.00;55703.94;2061963;28;20255;-72
2024/03/03 13:53:22;;;;;;;8.27;5.65;;;;;;;-145.49;100.00;55703.94;2064890;28;20201;-72
2024/03/03 13:54:24;;;;;;;9.77;6.18;;;;;;;-145.49;100.00;55703.94;2065218;28;20206;-71
2024/03/03 13:55:26;;;;;;;9.25;5.65;;;;;;;-145.49;100.00;55703.94;2065873;28;20554;-72
2024/03/03 13:56:27;;;;;;;8.90;6.47;;;;;;;-145.49;100.00;55703.94;2067483;28;20241;-72
2024/03/03 13:57:29;;;;;;;9.07;6.00;;;;;;;-145.49;100.00;55703.94;2068809;28;20211;-72
2024/03/03 13:58:31;;;;;;;9.93;6.10;;;;;;;-145.49;100.00;55703.94;2066541;28;20202;-71
2024/03/03 13:59:32;;;;;;;11.88;6.25;;;;;;;-145.49;100.00;55703.94;2068828;28;20209;-71
2024/03/03 14:00:34;;;;;;;8.70;5.82;;;;;;;-145.49;100.00;55703.94;2066537;28;20281;-71
2024/03/03 14:01:38;;;;;;;10.13;5.70;;;;;;;-145.49;100.00;55703.94;2059084;28;20228;-72
2024/03/03 14:02:44;;;;;;;10.50;6.05;;;;;;;-145.49;100.00;55703.94;2059455;28;20284;-72
2024/03/03 14:03:45;;;;;;;11.23;5.70;;;;;;;-145.49;100.00;55703.94;2064167;28;20227;-71
2024/03/03 14:04:47;;;;;;;15.63;6.75;;;;;;;-145.49;100.00;55703.94;2061402;28;20208;-72
2024/03/03 14:05:49;;;;;;;10.05;5.50;;;;;;;-145.49;100.00;55703.94;2076798;28;20293;-71
2024/03/03 14:06:51;;;;;;;11.23;5.88;;;;;;;-145.49;100.00;55703.94;2077162;28;20242;-72
2024/03/03 14:07:52;;;;;;;9.55;5.60;;;;;;;-145.49;100.00;55703.94;2066085;28;20201;-72
2024/03/03 14:08:54;;;;;;;8.05;5.20;;;;;;;-145.49;100.00;55703.94;2066367;28;20264;-72
2024/03/03 14:09:59;;;;;;;7.72;4.93;;;;;;;-145.49;100.00;55703.94;2067523;28;20257;-72
2024/03/03 14:11:01;;;;;;;10.10;6.05;;;;;;;-145.49;100.00;55703.94;2065523;28;20213;-72
2024/03/03 14:12:03;;;;;;;10.23;6.60;;;;;;;-145.49;100.00;55703.94;2063910;28;20241;-72
2024/03/03 14:13:04;;;;;;;17.13;7.90;;;;;;;-145.49;100.00;55703.94;2066863;28;20201;-71